METAR Data
IDs: Format: Raw Decoded Include TAF

Data at: 1129 UTC 16 Feb 2019

PPIZ 161056Z AUTO 04010KT 10SM CLR M17/M20 A2977 RMK AO2 SLP085 T11721200 FZRANO
PPIZ 160956Z AUTO 07007KT 10SM CLR M17/M19 A2980 RMK AO2 SLP094 T11671189 FZRANO
PPIZ 160856Z AUTO 07009KT 10SM CLR M17/M19 A2982 RMK AO2 SLP100 T11671194 57026 FZRANO
PPIZ 160756Z AUTO 08008KT 10SM CLR M17/M20 A2984 RMK AO2 SLP109 T11721200 411611344 FZRANO
PPIZ 160656Z AUTO 07008KT 10SM CLR M18/M21 A2987 RMK AO2 SLP118 T11831211 FZRANO
PPIZ 160556Z AUTO 08011KT 10SM CLR M20/M23 A2989 RMK AO2 SLP126 T12001228 11161 21200 58020 FZRANO
PPIZ 160356Z AUTO 09006KT 10SM OVC041 M16/M19 A2994 RMK AO2 SLP144 T11611189 FZRANO
PPIZ 160256Z AUTO 07005KT 10SM OVC045 M17/M19 A2995 RMK AO2 SLP146 T11671194 58012 FZRANO
PPIZ 160156Z AUTO 08007KT 10SM OVC034 M18/M21 A2996 RMK AO2 SLP151 T11831206 FZRANO
PPIZ 160056Z AUTO 05004KT 10SM BKN036 OVC055 M19/M22 A2998 RMK AO2 SLP156 T11941217 FZRANO
PPIZ 152356Z AUTO 07004KT 10SM FEW043 OVC060 M19/M22 A2998 RMK AO2 SLP158 T11941217 11178 21233 58005 FZRANO
PPIZ 152156Z AUTO 08007KT 10SM FEW075 M23/M27 A3000 RMK AO2 SLP162 T12331267 FZRANO
PPIZ 152056Z AUTO 09006KT 10SM CLR M21/M23 A3000 RMK AO2 SLP163 T12111233 56004 FZRANO
PPIZ 151956Z AUTO 07006KT 10SM CLR M20/M23 A3000 RMK AO2 SLP164 T12001228 FZRANO
PPIZ 151856Z AUTO 10009KT 10SM FEW110 M19/M22 A3000 RMK AO2 SLP165 T11941222 FZRANO
PPIZ 151756Z AUTO 10008KT 10SM OVC085 M18/M21 A3001 RMK AO2 SLP167 T11781206 11178 21261 56010 FZRANO
PPIZ 151656Z AUTO 09008KT 10SM BKN100 M18/M21 A3002 RMK AO2 SLP169 T11831211 FZRANO
PPIZ 151556Z AUTO 09006KT 10SM SCT043 BKN110 M19/M22 A3003 RMK AO2 SLP172 T11941222 FZRANO
PPIZ 151456Z AUTO 07007KT 10SM OVC045 M21/M23 A3004 RMK AO2 SLP178 T12061228 58003 FZRANO
PPIZ 151356Z AUTO 05004KT 10SM OVC047 M22/M24 A3006 RMK AO2 SLP183 T12221244 FZRANO
PPIZ 151256Z AUTO 04005KT 10SM OVC047 M24/M26 A3005 RMK AO2 SLP180 T12391261 FZRANO
PPIZ 151156Z AUTO 04006KT 10SM OVC047 M26/M28 A3005 RMK AO2 SLP180 T12611283 11261 21367 58001 FZRANO
PPIZ 150956Z AUTO 01005KT 10SM SCT041 M28/M31 A3006 RMK AO2 SLP183 T12831311 FZRANO
PPIZ 150856Z AUTO 04008KT 10SM OVC035 M31/M34 A3005 RMK AO2 SLP181 T13111339 58017 FZRANO
PPIZ 150756Z AUTO 03007KT 10SM BKN035 M35/ A3007 RMK AO2 SLP187 T1350 413331394 FZRANO
PPIZ 150656Z AUTO 03005KT 10SM CLR M36/ A3009 RMK AO2 SLP195 T1356 FZRANO
PPIZ 150556Z AUTO 03006KT 10SM CLR M37/ A3010 RMK AO2 SLP198 T1367 11333 21367 57013 FZRANO
PPIZ 150456Z AUTO 04005KT 10SM CLR M36/ A3012 RMK AO2 SLP204 T1361 FZRANO
PPIZ 150356Z AUTO 03007KT 10SM CLR M37/ A3012 RMK AO2 SLP205 T1367 FZRANO
PPIZ 150256Z AUTO 02005KT 10SM CLR M36/ A3014 RMK AO2 SLP211 T1361 56019 FZRANO
PPIZ 150056Z AUTO 03006KT 10SM CLR M34/ A3017 RMK AO2 SLP222 T1344 FZRANO
PPIZ 142356Z AUTO 01006KT 10SM CLR M33/M37 A3020 RMK AO2 SLP230 T13331367 11333 21378 58018 FZRANO